WetterOnline ( https://www.wetteronline.de )

Wetter aktuell Katharinenheerd

Aktuelles Wetter: St. Peter-Ording (11m)

6-stündlich | Neueste Meldungen
Ortszeit Temperatur Wetter
Di, 17.05. 2:00 12.2° C Regen
Mo, 16.05. 20:00 16.8° C bewölkt
Mo, 16.05. 14:00 20.4° C leicht bewölkt
Mo, 16.05. 8:00 12.7° C wolkenlos
Mo, 16.05. 2:00 9.0° C bewölkt
So, 15.05. 20:00 14.8° C bedeckt
So, 15.05. 14:00 14.2° C leicht bewölkt
So, 15.05. 8:00 11.7° C bewölkt
Ortszeit Temperatur Wetter
Di, 17.05. 5:00 11.8° C leichter Regen
Di, 17.05. 4:50 11.8° C leichter Regen
Di, 17.05. 4:40 11.8° C leichter Regen
Di, 17.05. 4:30 11.7° C leichter Regen
Di, 17.05. 4:20 11.7° C leichter Regen
Di, 17.05. 4:10 11.7° C leichter Regen
Di, 17.05. 4:00 11.7° C leichter Regen
Di, 17.05. 3:30 11.9° C leichter Regen
Di, 17.05. 3:00 11.9° C leichter Regen
Di, 17.05. 2:30 12.1° C leichter Regen
Di, 17.05. 2:00 12.2° C Regen
Ortszeit Relative Feuchte Sichtweite
Di, 17.05. 2:00 92% 7 km
Mo, 16.05. 20:00 50% 50 km
Mo, 16.05. 14:00 47% 45 km
Mo, 16.05. 8:00 73% 55 km
Mo, 16.05. 2:00 84% 40 km
So, 15.05. 20:00 69% 45 km
So, 15.05. 14:00 69% 30 km
So, 15.05. 8:00 84% 27 km
Ortszeit Relative Feuchte Sichtweite
Di, 17.05. 5:00 97% 3.6 km
Di, 17.05. 4:50 97% -
Di, 17.05. 4:40 97% -
Di, 17.05. 4:30 96% 9 km
Di, 17.05. 4:20 96% -
Di, 17.05. 4:10 97% -
Di, 17.05. 4:00 96% 7 km
Di, 17.05. 3:30 95% 10 km
Di, 17.05. 3:00 96% 8 km
Di, 17.05. 2:30 96% 7 km
Di, 17.05. 2:00 92% 7 km
Ortszeit Niederschlagsmenge Niederschlagsart
Di, 17.05. 2:00 4 l/m2 in 6 Std. Regen
Mo, 16.05. 20:00 0.0 l/m2 in 12 Std. -
Mo, 16.05. 14:00 0.0 l/m2 in 6 Std. -
Mo, 16.05. 8:00 0.0 l/m2 in 12 Std. -
Mo, 16.05. 2:00 0.0 l/m2 in 6 Std. -
So, 15.05. 20:00 0.0 l/m2 in 12 Std. -
So, 15.05. 14:00 0.0 l/m2 in 6 Std. -
So, 15.05. 8:00 0.0 l/m2 in 12 Std. -
Ortszeit Niederschlagsmenge Niederschlagsart
Di, 17.05. 5:00 1.3 l/m2 in 1 Std. Regen
Di, 17.05. 4:50 keine Meldung -
Di, 17.05. 4:40 keine Meldung -
Di, 17.05. 4:30 0.9 l/m2 in 1 Std. -
Di, 17.05. 4:20 keine Meldung -
Di, 17.05. 4:10 keine Meldung -
Di, 17.05. 4:00 1.3 l/m2 in 1 Std. Regen
Di, 17.05. 3:30 0.6 l/m2 in 1 Std. -
Di, 17.05. 3:00 3.4 l/m2 in 1 Std. Regen
Di, 17.05. 2:30 2.5 l/m2 in 1 Std. -
Di, 17.05. 2:00 1.5 l/m2 in 1 Std. Regen
Ortszeit Stärke Spitze Richtung
km/h Bft. km/h Grad Sektor
Di, 17.05. 2:00 7 2 40 100° O
Mo, 16.05. 20:00 28 4 50 80° O
Mo, 16.05. 14:00 24 4 41 90° O
Mo, 16.05. 8:00 17 3 24 100° O
Mo, 16.05. 2:00 11 2 22 110° O
So, 15.05. 20:00 14 3 29 30° NO
So, 15.05. 14:00 13 3 22 320° NW
So, 15.05. 8:00 7 2 14 330° NW
Ortszeit Stärke Spitze Richtung
km/h Bft. km/h Grad Sektor
Di, 17.05. 5:00 7 2 15 100° O
Di, 17.05. 4:50 7 2 - 100° O
Di, 17.05. 4:40 7 2 - 80° O
Di, 17.05. 4:30 6 1 15 100° O
Di, 17.05. 4:20 6 1 - 100° O
Di, 17.05. 4:10 7 2 - 100° O
Di, 17.05. 4:00 13 3 22 100° O
Di, 17.05. 3:30 13 3 22 100° O
Di, 17.05. 3:00 17 3 22 70° O
Di, 17.05. 2:30 11 2 18 70° O
Di, 17.05. 2:00 7 2 11 100° O
Ortszeit Untergrenze Bedeckung Gattung
total tief tief mittel hoch
Di, 17.05. 2:00 780 m 8/8 8/8 - - -
Mo, 16.05. 20:00 2700 m 8/8 7/8 - - -
Mo, 16.05. 14:00 8100 m 8/8 0/8 - - -
Mo, 16.05. 8:00 - 0/8 0/8 - - -
Mo, 16.05. 2:00 6900 m 8/8 5/8 - - -
So, 15.05. 20:00 6000 m 8/8 8/8 - - -
So, 15.05. 14:00 9000 m 4/8 0/8 - - -
So, 15.05. 8:00 300 m 7/8 7/8 - - -
Ortszeit Bedeckungsgrad in Achtel und Wolkenuntergrenze
Di, 17.05. 5:00 1(150m) 5(780m) 8(900m)
Di, 17.05. 4:50 1(150m) 5(780m) 8(900m)
Di, 17.05. 4:40 7
Di, 17.05. 4:30 4(180m) 7(690m) 7(2400m)
Di, 17.05. 4:20 4(180m) 7(690m) 7(2400m)
Di, 17.05. 4:10 7
Di, 17.05. 4:00 1(2100m) 6(2400m)
Di, 17.05. 3:30 1(1800m) 7(2700m)
Di, 17.05. 3:00 7(2400m)
Di, 17.05. 2:30 1(930m) 6(1500m) 8(2100m)
Di, 17.05. 2:00 3(780m) 5(1200m) 8(1500m)
Ortszeit Luftdruck NN (hPa) Tendenz (hPa in 3 Std.)
Di, 17.05. 2:00 1019 + 1,4
Mo, 16.05. 20:00 1016 - 0,4
Mo, 16.05. 14:00 1018 - 0,6
Mo, 16.05. 8:00 1019 - 0,6
Mo, 16.05. 2:00 1020 - 0,3
So, 15.05. 20:00 1021 - 1,1
So, 15.05. 14:00 1023 - 0,4
So, 15.05. 8:00 1023 + 1,1
Ortszeit Luftdruck NN (hPa) Tendenz (hPa in 3 Std.)
Di, 17.05. 5:00 1018 - 0,5
Di, 17.05. 4:50 1018 keine Meldung
Di, 17.05. 4:40 1018 keine Meldung
Di, 17.05. 4:30 1019 0,0
Di, 17.05. 4:20 1019 keine Meldung
Di, 17.05. 4:10 1019 keine Meldung
Di, 17.05. 4:00 1018 + 0,1
Di, 17.05. 3:30 1019 + 0,6
Di, 17.05. 3:00 1018 + 0,3
Di, 17.05. 2:30 1018 + 0,2
Di, 17.05. 2:00 1019 + 1,4
Ortszeit Schneehöhe (cm)
Di, 17.05. 2:00 0
Mo, 16.05. 20:00 0
Mo, 16.05. 14:00 0
Mo, 16.05. 8:00 0
Mo, 16.05. 2:00 0
So, 15.05. 20:00 0
So, 15.05. 14:00 0
So, 15.05. 8:00 0
Ortszeit Schneehöhe (cm)
Di, 17.05. 5:00 0
Di, 17.05. 4:50 0
Di, 17.05. 4:40 0
Di, 17.05. 4:30 0
Di, 17.05. 4:20 0
Di, 17.05. 4:10 0
Di, 17.05. 4:00 0
Di, 17.05. 3:30 0
Di, 17.05. 3:00 0
Di, 17.05. 2:30 0
Di, 17.05. 2:00 0
Link zu dieser Seite / Seite empfehlen

Das Wetter in ...